Pinot Noir Commodore — WCZ7643 — position and weather

sailwx.info

Track history (hours):
 
Tides and Currents Weather Stations Pressure Air Temp Water Temp Dewpoint Dewpoint Depression Visibility Wind Speed Wind Dir Waves Ship Positions

Pinot Noir Commodore

Owner: PROESCHER, WARD H, Alameda, CA. More information available from US FCC via Universal Licensing System and Coast Guard Vessel Documentation Center.

Last reported at 2017-Oct-15 08:50 UTC. Time now 2017-Oct-17 13:02 UTC.
Position N 37°47' W 122°17'.

Length 25 m; draft 1 m.

Type: Passenger vessel. MMSI: 367437910.

Date/timePositionNaut miles runAvg speedWind from/ knotsBaromVisibWave heightAir tempDewpointWater temp
2017-Oct-15 08:50N 37°47' W 122°17'0 0.4
2017-Oct-15 08:30N 37°48' W 122°17'3 5.4
2017-Oct-15 08:00N 37°48' W 122°20'3 5.8
2017-Oct-15 07:30N 37°49' W 122°23'3 5.3
2017-Oct-15 07:00N 37°50' W 122°27'1 1.6
2017-Oct-15 06:30N 37°49' W 122°27'3 6.3
2017-Oct-15 06:00N 37°48' W 122°23'4 7.8
2017-Oct-15 05:30N 37°48' W 122°19'2 3.0
2017-Oct-15 05:00N 37°47' W 122°17'0 0.0
2017-Oct-14 22:35N 37°47' W 122°17'0 0.0
2017-Oct-14 22:30N 37°47' W 122°17'0 0.0
2017-Oct-14 22:00N 37°47' W 122°17'0 0.0
2017-Oct-14 21:30N 37°47' W 122°17'0 0.0
2017-Oct-14 21:00N 37°47' W 122°17'0 0.0
2017-Oct-14 20:30N 37°47' W 122°17'0 0.0
2017-Oct-14 20:00N 37°47' W 122°17'0 0.0
2017-Oct-14 19:30N 37°47' W 122°17'0 0.0
2017-Oct-14 19:00N 37°47' W 122°17'0 0.0
2017-Oct-14 18:30N 37°47' W 122°17'0 0.0
2017-Oct-14 18:00N 37°47' W 122°17'0 0.0
2017-Oct-14 17:30N 37°47' W 122°17'0 0.0
2017-Oct-14 17:00N 37°47' W 122°17'0 0.0
2017-Oct-13 22:00N 37°47' W 122°17'0 0.1
2017-Oct-13 21:30N 37°48' W 122°17'4 7.3
2017-Oct-13 21:00N 37°48' W 122°21'4 7.7
2017-Oct-13 20:30N 37°50' W 122°25'2 4.5
2017-Oct-13 20:00N 37°52' W 122°27'3 5.5
2017-Oct-13 19:30N 37°49' W 122°28'4 7.9
2017-Oct-13 19:00N 37°47' W 122°23'2 4.2
2017-Oct-13 18:31N 37°48' W 122°20'3 6.0
2017-Oct-13 18:00N 37°47' W 122°17'0 0.0
2017-Oct-13 17:30N 37°47' W 122°17'0 0.0
2017-Oct-13 16:38N 37°47' W 122°17'0 0.0
2017-Oct-13 16:30N 37°47' W 122°17'0 0.0
2017-Oct-13 16:00N 37°47' W 122°17'0 0.0
2017-Oct-13 15:30N 37°47' W 122°17'  
2017-Oct-08 23:43N 37°47' W 122°17'1 3.5
2017-Oct-08 23:31N 37°48' W 122°18'4 7.7
2017-Oct-08 23:01N 37°48' W 122°22'2 3.8
2017-Oct-08 22:31N 37°49' W 122°24'0 0.3
2017-Oct-08 22:01N 37°49' W 122°24'0 0.1
2017-Oct-08 21:31N 37°49' W 122°24'0 0.2
2017-Oct-08 21:00N 37°49' W 122°24'0 0.2
2017-Oct-08 20:31N 37°49' W 122°24'2 4.1
2017-Oct-08 20:00N 37°48' W 122°22'4 8.3
2017-Oct-08 19:30N 37°48' W 122°17'0 0.1
2017-Oct-08 19:00N 37°47' W 122°17'0 0.0
2017-Oct-08 14:59N 37°47' W 122°17'0 0.0
2017-Oct-08 14:30N 37°47' W 122°17'0 0.0
2017-Oct-08 14:01N 37°47' W 122°17'0 0.0
2017-Oct-07 23:55N 37°47' W 122°17'2 3.9
2017-Oct-07 23:31N 37°48' W 122°19'4 7.2
2017-Oct-07 23:01N 37°49' W 122°23'2 3.5
2017-Oct-07 22:31N 37°50' W 122°25'0 0.9
2017-Oct-07 22:01N 37°50' W 122°25'1 1.2
2017-Oct-07 21:31N 37°50' W 122°26'1 1.1
2017-Oct-07 21:01N 37°50' W 122°27'1 2.2
2017-Oct-07 20:31N 37°50' W 122°25'3 5.6
2017-Oct-07 20:01N 37°48' W 122°22'4 7.9
2017-Oct-07 19:30N 37°48' W 122°17'0 1.0
2017-Oct-07 19:01N 37°47' W 122°17'0 0.0
2017-Oct-07 18:30N 37°47' W 122°17'0 0.0
2017-Oct-07 15:20N 37°47' W 122°17'0 0.0
2017-Oct-07 15:00N 37°47' W 122°17'0 0.0
2017-Oct-07 14:30N 37°47' W 122°17'0 0.0
2017-Oct-07 14:00N 37°47' W 122°17'0 0.0
2017-Oct-07 00:01N 37°47' W 122°17'0 0.5
2017-Oct-07 00:01N 37°47' W 122°17'2 3.7
2017-Oct-06 23:30N 37°48' W 122°19'3 6.4
2017-Oct-06 23:01N 37°49' W 122°23'2 3.3
2017-Oct-06 22:30N 37°50' W 122°24'0 0.3
2017-Oct-06 22:01N 37°50' W 122°24'0 0.4
2017-Oct-06 21:30N 37°50' W 122°25'0 0.6
2017-Oct-06 21:00N 37°50' W 122°24'1 1.6
2017-Oct-06 20:31N 37°49' W 122°24'3 5.8
2017-Oct-06 20:01N 37°48' W 122°21'3 6.0
2017-Oct-06 19:30N 37°48' W 122°17'0 0.3
2017-Oct-06 19:00N 37°47' W 122°17'0 0.0
2017-Oct-06 15:22N 37°47' W 122°17'0 0.0
2017-Oct-06 15:01N 37°47' W 122°17'0 0.0
2017-Oct-06 14:30N 37°47' W 122°17'0 0.0
2017-Oct-06 00:55N 37°47' W 122°17'0 0.3
2017-Oct-06 00:31N 37°48' W 122°17'3 5.4
2017-Oct-06 00:01N 37°48' W 122°20'0 0.6
2017-Oct-05 23:31N 37°48' W 122°20'2 4.8
2017-Oct-05 23:00N 37°48' W 122°17'0 0.0
2017-Oct-05 22:31N 37°48' W 122°17'0 0.3
2017-Oct-05 22:00N 37°47' W 122°17'0 0.0
2017-Oct-05 17:06N 37°47' W 122°17'0 0.1
2017-Oct-05 17:00N 37°47' W 122°17'  
Track history (hours):
 
Tides and Currents Weather Stations Pressure Air Temp Water Temp Dewpoint Dewpoint Depression Visibility Wind Speed Wind Dir Waves Ship Positions

Pinot Noir Commodore

Owner: PROESCHER, WARD H, Alameda, CA. More information available from US FCC via Universal Licensing System and Coast Guard Vessel Documentation Center.

Last reported at 2017-Oct-15 08:50 UTC. Time now 2017-Oct-17 13:02 UTC.
Position N 37°47' W 122°17'.

Length 25 m; draft 1 m.

Type: Passenger vessel. MMSI: 367437910.

Date/timePositionNaut miles runAvg speedWind from/ knotsBaromVisibWave heightAir tempDewpointWater temp
2017-Oct-15 08:50N 37°47' W 122°17'0 0.4
2017-Oct-15 08:30N 37°48' W 122°17'3 5.4
2017-Oct-15 08:00N 37°48' W 122°20'3 5.8
2017-Oct-15 07:30N 37°49' W 122°23'3 5.3
2017-Oct-15 07:00N 37°50' W 122°27'1 1.6
2017-Oct-15 06:30N 37°49' W 122°27'3 6.3
2017-Oct-15 06:00N 37°48' W 122°23'4 7.8
2017-Oct-15 05:30N 37°48' W 122°19'2 3.0
2017-Oct-15 05:00N 37°47' W 122°17'0 0.0
2017-Oct-14 22:35N 37°47' W 122°17'0 0.0
2017-Oct-14 22:30N 37°47' W 122°17'0 0.0
2017-Oct-14 22:00N 37°47' W 122°17'0 0.0
2017-Oct-14 21:30N 37°47' W 122°17'0 0.0
2017-Oct-14 21:00N 37°47' W 122°17'0 0.0
2017-Oct-14 20:30N 37°47' W 122°17'0 0.0
2017-Oct-14 20:00N 37°47' W 122°17'0 0.0
2017-Oct-14 19:30N 37°47' W 122°17'0 0.0
2017-Oct-14 19:00N 37°47' W 122°17'0 0.0
2017-Oct-14 18:30N 37°47' W 122°17'0 0.0
2017-Oct-14 18:00N 37°47' W 122°17'0 0.0
2017-Oct-14 17:30N 37°47' W 122°17'0 0.0
2017-Oct-14 17:00N 37°47' W 122°17'0 0.0
2017-Oct-13 22:00N 37°47' W 122°17'0 0.1
2017-Oct-13 21:30N 37°48' W 122°17'4 7.3
2017-Oct-13 21:00N 37°48' W 122°21'4 7.7
2017-Oct-13 20:30N 37°50' W 122°25'2 4.5
2017-Oct-13 20:00N 37°52' W 122°27'3 5.5
2017-Oct-13 19:30N 37°49' W 122°28'4 7.9
2017-Oct-13 19:00N 37°47' W 122°23'2 4.2
2017-Oct-13 18:31N 37°48' W 122°20'3 6.0
2017-Oct-13 18:00N 37°47' W 122°17'0 0.0
2017-Oct-13 17:30N 37°47' W 122°17'0 0.0
2017-Oct-13 16:38N 37°47' W 122°17'0 0.0
2017-Oct-13 16:30N 37°47' W 122°17'0 0.0
2017-Oct-13 16:00N 37°47' W 122°17'0 0.0
2017-Oct-13 15:30N 37°47' W 122°17'  
2017-Oct-08 23:43N 37°47' W 122°17'1 3.5
2017-Oct-08 23:31N 37°48' W 122°18'4 7.7
2017-Oct-08 23:01N 37°48' W 122°22'2 3.8
2017-Oct-08 22:31N 37°49' W 122°24'0 0.3
2017-Oct-08 22:01N 37°49' W 122°24'0 0.1
2017-Oct-08 21:31N 37°49' W 122°24'0 0.2
2017-Oct-08 21:00N 37°49' W 122°24'0 0.2
2017-Oct-08 20:31N 37°49' W 122°24'2 4.1
2017-Oct-08 20:00N 37°48' W 122°22'4 8.3
2017-Oct-08 19:30N 37°48' W 122°17'0 0.1
2017-Oct-08 19:00N 37°47' W 122°17'0 0.0
2017-Oct-08 14:59N 37°47' W 122°17'0 0.0
2017-Oct-08 14:30N 37°47' W 122°17'0 0.0
2017-Oct-08 14:01N 37°47' W 122°17'0 0.0
2017-Oct-07 23:55N 37°47' W 122°17'2 3.9
2017-Oct-07 23:31N 37°48' W 122°19'4 7.2
2017-Oct-07 23:01N 37°49' W 122°23'2 3.5
2017-Oct-07 22:31N 37°50' W 122°25'0 0.9
2017-Oct-07 22:01N 37°50' W 122°25'1 1.2
2017-Oct-07 21:31N 37°50' W 122°26'1 1.1
2017-Oct-07 21:01N 37°50' W 122°27'1 2.2
2017-Oct-07 20:31N 37°50' W 122°25'3 5.6
2017-Oct-07 20:01N 37°48' W 122°22'4 7.9
2017-Oct-07 19:30N 37°48' W 122°17'0 1.0
2017-Oct-07 19:01N 37°47' W 122°17'0 0.0
2017-Oct-07 18:30N 37°47' W 122°17'0 0.0
2017-Oct-07 15:20N 37°47' W 122°17'0 0.0
2017-Oct-07 15:00N 37°47' W 122°17'0 0.0
2017-Oct-07 14:30N 37°47' W 122°17'0 0.0
2017-Oct-07 14:00N 37°47' W 122°17'0 0.0
2017-Oct-07 00:01N 37°47' W 122°17'0 0.5
2017-Oct-07 00:01N 37°47' W 122°17'2 3.7
2017-Oct-06 23:30N 37°48' W 122°19'3 6.4
2017-Oct-06 23:01N 37°49' W 122°23'2 3.3
2017-Oct-06 22:30N 37°50' W 122°24'0 0.3
2017-Oct-06 22:01N 37°50' W 122°24'0 0.4
2017-Oct-06 21:30N 37°50' W 122°25'0 0.6
2017-Oct-06 21:00N 37°50' W 122°24'1 1.6
2017-Oct-06 20:31N 37°49' W 122°24'3 5.8
2017-Oct-06 20:01N 37°48' W 122°21'3 6.0
2017-Oct-06 19:30N 37°48' W 122°17'0 0.3
2017-Oct-06 19:00N 37°47' W 122°17'0 0.0
2017-Oct-06 15:22N 37°47' W 122°17'0 0.0
2017-Oct-06 15:01N 37°47' W 122°17'0 0.0
2017-Oct-06 14:30N 37°47' W 122°17'0 0.0
2017-Oct-06 00:55N 37°47' W 122°17'0 0.3
2017-Oct-06 00:31N 37°48' W 122°17'3 5.4
2017-Oct-06 00:01N 37°48' W 122°20'0 0.6
2017-Oct-05 23:31N 37°48' W 122°20'2 4.8
2017-Oct-05 23:00N 37°48' W 122°17'0 0.0
2017-Oct-05 22:31N 37°48' W 122°17'0 0.3
2017-Oct-05 22:00N 37°47' W 122°17'0 0.0
2017-Oct-05 17:06N 37°47' W 122°17'0 0.1
2017-Oct-05 17:00N 37°47' W 122°17'  

Dump ship's entire track history